SQ2CET-13 Weather Reports


Display with metric or nautical units.
time (UTC)temp
F
wind
direction
speed
MPH
gust
MPH
rain 1hr
in
rain 24hr
in
rain mn
in
humidity
%
barometer
mb
20221004192057 51 220 4.0 9.0 0.00 0.08 0.02 92 1021.6
20221004191142 51 221 5.0 10.0 0.00 0.08 0.02 92 1021.7
20221004190111 51 218 3.0 9.0 0.00 0.08 0.02 92 1021.6
20221004185131 51 228 3.0 9.0 0.00 0.08 0.02 92 1021.7
20221004184025 51 230 4.0 8.0 0.00 0.08 0.02 92 1021.6
20221004183045 50 225 5.0 9.0 0.00 0.08 0.02 92 1021.5
20221004182108 50 233 3.0 5.0 0.00 0.08 0.02 92 1021.2
20221004181030 50 220 2.0 7.0 0.00 0.08 0.02 91 1021.3
20221004180051 51 217 1.0 5.0 0.00 0.08 0.02 91 1021.2
20221004175117 51 227 2.0 6.0 0.00 0.08 0.02 91 1021.2
20221004174038 51 22 1.0 5.0 0.00 0.08 0.02 91 1021.1
20221004173100 51 124 1.0 3.0 0.00 0.08 0.02 91 1021.2
20221004162019 53 0.0 3.0 0.00 0.08 0.02 84 1021.3
20221004161044 54 230 3.0 6.0 0.00 0.08 0.02 82 1021.3
20221004160100 54 241 3.0 9.0 0.00 0.08 0.02 80 1021.1
20221004155123 56 239 4.0 9.0 0.00 0.08 0.02 76 1021.1
20221004154116 56 254 5.0 10.0 0.00 0.08 0.02 75 1021.0
20221004153105 57 229 4.0 9.0 0.00 0.08 0.02 74 1020.9
20221004152023 58 234 5.0 9.0 0.00 0.08 0.02 72 1020.9
20221004151116 58 245 6.0 12.0 0.00 0.08 0.02 71 1020.8
20221004150053 59 246 3.0 7.0 0.00 0.08 0.02 69 1020.8
20221004145200 59 251 4.0 8.0 0.00 0.08 0.02 70 1020.8
20221004144027 59 212 3.0 7.0 0.00 0.08 0.02 70 1020.7
20221004143046 59 241 3.0 13.0 0.00 0.08 0.02 70 1020.8
20221004142212 59 251 5.0 9.0 0.00 0.08 0.02 68 1020.8
20221004141110 58 246 5.0 11.0 0.00 0.08 0.02 69 1020.8
20221004140057 57 249 6.0 20.0 0.00 0.08 0.02 70 1020.8
20221004135100 57 250 4.0 10.0 0.00 0.08 0.02 70 1020.9
20221004134108 59 30 3.0 9.0 0.00 0.08 0.02 65 1020.8
20221004133027 59 256 5.0 13.0 0.00 0.08 0.02 64 1020.7
20221004132052 60 291 4.0 14.0 0.00 0.08 0.02 65 1020.6
20221004131104 57 275 4.0 11.0 0.00 0.08 0.02 69 1020.5
20221004130053 60 270 5.0 13.0 0.00 0.08 0.02 63 1020.6
20221004125051 58 250 3.0 11.0 0.00 0.08 0.02 67 1020.8
20221004124109 60 229 5.0 11.0 0.00 0.08 0.02 65 1020.6
20221004123049 59 247 4.0 10.0 0.00 0.08 0.02 65 1020.5
20221004122052 59 336 2.0 11.0 0.00 0.08 0.02 65 1020.4
20221004121200 59 228 6.0 12.0 0.00 0.08 0.02 65 1020.4
20221004120040 58 251 4.0 13.0 0.00 0.08 0.02 66 1020.4
20221004115059 59 256 7.0 14.0 0.00 0.08 0.02 63 1020.5
20221004114022 58 7 4.0 10.0 0.00 0.08 0.02 66 1020.5
20221004113134 58 2 4.0 14.0 0.00 0.08 0.02 66 1020.5
20221004112109 59 239 5.0 12.0 0.00 0.08 0.02 66 1020.4
20221004111029 58 343 6.0 11.0 0.00 0.08 0.02 64 1020.4
20221004110021 59 250 5.0 15.0 0.00 0.08 0.02 65 1020.3
20221004105029 59 317 4.0 10.0 0.00 0.08 0.02 67 1020.1
20221004104038 57 343 4.0 13.0 0.00 0.08 0.02 68 1020.0
20221004103100 58 70 3.0 9.0 0.00 0.08 0.02 68 1020.1
20221004102022 58 200 4.0 8.0 0.00 0.08 0.02 70 1020.0
20221004101032 57 315 5.0 9.0 0.00 0.08 0.02 71 1020.0
20221004100040 56 346 4.0 10.0 0.00 0.08 0.02 72 1019.9
20221004095101 56 360 5.0 11.0 0.00 0.08 0.02 74 1019.9
20221004094111 56 343 4.0 10.0 0.00 0.08 0.02 74 1019.7
20221004093102 56 334 4.0 9.0 0.00 0.08 0.02 76 1019.5
20221004092024 55 9 5.0 11.0 0.00 0.08 0.02 76 1019.4
20221004091107 54 355 4.0 10.0 0.00 0.09 0.02 79 1019.4
20221004090051 55 353 4.0 10.0 0.00 0.09 0.02 79 1019.2
20221004085124 54 5 4.0 10.0 0.00 0.09 0.02 83 1019.3
20221004084110 54 43 4.0 11.0 0.00 0.09 0.02 82 1019.3
20221004083118 54 354 4.0 9.0 0.00 0.12 0.02 82 1019.2
20221004082115 53 3 5.0 11.0 0.00 0.13 0.02 85 1018.9
20221004081138 53 353 2.0 7.0 0.00 0.13 0.02 87 1018.8
20221004080128 53 27 3.0 8.0 0.00 0.13 0.02 87 1018.5
20221004075125 54 331 3.0 11.0 0.00 0.13 0.02 85 1018.5
20221004074124 52 33 3.0 6.0 0.00 0.13 0.02 90 1018.4
20221004073028 52 29 2.0 6.0 0.00 0.13 0.02 91 1018.4
20221004072057 52 341 2.0 9.0 0.00 0.13 0.02 93 1018.4
20221004071201 51 39 3.0 9.0 0.00 0.13 0.02 96 1018.2
20221004070057 51 316 2.0 6.0 0.00 0.13 0.02 98 1018.1
20221004065101 51 223 2.0 5.0 0.00 0.13 0.02 98 1017.9
20221004064025 50 258 2.0 5.0 0.00 0.13 0.02 99 1017.9
20221004063031 50 235 2.0 4.0 0.00 0.13 0.02 99 1017.8
20221004062053 49 226 1.0 5.0 0.00 0.13 0.02 99 1017.7
20221004061120 49 216 1.0 4.0 0.00 0.13 0.02 99 1017.5
20221004060035 49 200 2.0 5.0 0.00 0.13 0.02 99 1017.4
20221004055101 49 231 2.0 3.0 0.00 0.13 0.02 99 1017.5
20221004054020 49 214 1.0 3.0 0.00 0.13 0.02 99 1017.3
20221004053049 48 245 2.0 3.0 0.00 0.13 0.02 99 1017.2
20221004052037 48 201 1.0 4.0 0.00 0.13 0.02 99 1017.1
20221004051031 47 224 2.0 5.0 0.00 0.13 0.02 99 1017.0
20221004050057 48 221 0.0 3.0 0.00 0.13 0.02 99 1017.0
20221004045100 48 260 0.0 4.0 0.00 0.13 0.02 99 1016.9
20221004044019 48 237 1.0 4.0 0.00 0.13 0.02 99 1016.8
20221004043117 48 240 2.0 4.0 0.00 0.13 0.02 99 1016.9
20221004042042 48 231 1.0 4.0 0.00 0.13 0.02 99 1016.7
20221004041045 48 220 2.0 4.0 0.00 0.13 0.02 99 1016.7
20221004040055 48 209 2.0 5.0 0.00 0.13 0.02 99 1016.6
20221004035119 48 236 2.0 4.0 0.00 0.13 0.02 99 1016.6
20221004034047 48 223 2.0 4.0 0.00 0.13 0.02 99 1016.6
20221004033045 48 208 1.0 3.0 0.00 0.13 0.02 99 1016.6
20221004032054 48 0.0 2.0 0.00 0.13 0.02 99 1016.4
20221004031102 48 199 0.0 2.0 0.00 0.13 0.01 99 1016.5
20221004030056 48 125 0.0 3.0 0.00 0.13 0.01 99 1016.3
20221004025034 48 222 1.0 3.0 0.00 0.13 0.01 99 1016.4
20221004024053 48 234 0.0 3.0 0.00 0.13 0.01 99 1016.4
20221004023115 48 0.0 3.0 0.00 0.13 0.01 99 1016.4
20221004022038 48 254 1.0 3.0 0.00 0.13 0.01 98 1016.3
20221004021048 48 218 1.0 4.0 0.00 0.13 0.01 98 1016.4
20221004020108 48 223 2.0 4.0 0.00 0.13 0.01 98 1016.4
20221004015101 48 227 2.0 4.0 0.00 0.14 0.01 98 1016.3
20221004014108 49 0.0 2.0 0.00 0.18 0.01 98 1016.4
20221004013033 49 196 0.0 2.0 0.00 0.19 0.01 98 1016.3
20221004012053 49 219 1.0 3.0 0.00 0.19 0.01 97 1016.3
20221004011102 49 237 1.0 3.0 0.01 0.19 0.01 97 1016.4
20221004010129 49 228 1.0 3.0 0.01 0.19 0.01 97 1016.3
20221004005132 49 230 1.0 3.0 0.01 0.19 0.01 97 1016.3
20221004004038 50 42 1.0 3.0 0.01 0.19 0.01 97 1016.4
20221004003100 49 44 1.0 5.0 0.01 0.19 0.01 97 1016.5
20221004002042 49 28 2.0 5.0 0.01 0.18 0.01 97 1016.4
20221004001052 49 34 2.0 5.0 0.00 0.17 0.00 98 1016.6
20221004000109 49 175 1.0 2.0 0.00 0.17 0.00 98 1016.3
20221003235118 49 67 1.0 4.0 0.00 0.17 0.00 98 1016.2
20221003234036 49 50 2.0 5.0 0.00 0.18 0.00 98 1016.3
20221003233031 49 209 1.0 3.0 0.00 0.18 0.00 98 1016.3
20221003232038 49 183 0.0 2.0 0.01 0.18 0.00 98 1016.2
20221003231045 49 0.0 3.0 0.02 0.18 0.00 98 1016.2
20221003230108 49 61 1.0 2.0 0.07 0.20 0.00 98 1016.3
20221003225102 49 44 1.0 2.0 0.07 0.20 0.20 98 1016.2
20221003224118 49 219 1.0 3.0 0.07 0.20 0.20 98 1016.3
20221003223108 49 28 1.0 3.0 0.07 0.20 0.20 98 1016.4
20221003222021 49 2 3.0 7.0 0.06 0.22 0.19 98 1016.5
20221003221032 50 16 3.0 6.0 0.04 0.22 0.17 98 1016.6
20221003220059 50 42 2.0 5.0 0.00 0.21 0.13 98 1016.3
20221003215119 50 0.0 1.0 0.00 0.26 0.13 98 1016.3
20221003214036 50 17 0.0 2.0 0.00 0.27 0.13 98 1016.3
20221003213106 50 240 1.0 3.0 0.00 0.27 0.13 97 1016.3
20221003212111 50 218 1.0 3.0 0.00 0.27 0.13 97 1016.2
20221003211120 50 0.0 2.0 0.00 0.27 0.13 97 1016.2
20221003210110 50 0.0 1.0 0.00 0.27 0.13 96 1016.2
20221003205053 51 189 1.0 2.0 0.00 0.27 0.13 95 1016.1
20221003204053 51 229 1.0 2.0 0.00 0.27 0.13 95 1016.2
20221003203132 51 230 0.0 3.0 0.00 0.27 0.13 94 1016.3
20221003202132 51 235 1.0 3.0 0.00 0.27 0.13 94 1016.2
20221003201032 51 250 1.0 3.0 0.00 0.27 0.13 93 1016.4
20221003200037 51 240 2.0 4.0 0.00 0.27 0.13 91 1016.3
20221003195051 51 227 2.0 7.0 0.00 0.27 0.13 92 1016.5
20221003194131 51 301 2.0 4.0 0.00 0.27 0.13 92 1016.4
20221003193142 51 12 2.0 5.0 0.00 0.27 0.13 93 1016.5